CW8081 Weather Reports


Display with metric or nautical units.
time (UTC)temp
F
wind
direction
speed
MPH
gust
MPH
rain 1hr
in
rain 24hr
in
rain mn
in
humidity
%
barometer
mb
20240413221606 66 207 0.0 2.0 0.00 0.00 0.00 70 1021.7
20240413221105 66 207 0.0 1.0 0.00 0.00 0.00 69 1021.7
20240413220605 66 207 0.0 0.0 0.00 0.00 0.00 68 1021.7
20240413220107 66 207 0.0 3.0 0.00 0.00 0.00 67 1021.7
20240413214606 67 207 0.0 0.0 0.00 0.00 0.00 66 1021.6
20240413213605 67 207 0.0 0.0 0.00 0.00 0.00 64 1021.6
20240413213106 67 207 0.0 0.0 0.00 0.00 0.00 64 1021.6
20240413210107 69 207 0.0 1.0 0.00 0.00 0.00 62 1021.6
20240413204605 69 207 0.0 2.0 0.00 0.00 0.00 61 1021.6
20240413204106 69 207 2.0 5.0 0.00 0.00 0.00 61 1021.4
20240413203105 69 207 0.0 3.0 0.00 0.00 0.00 60 1021.4
20240413201606 69 207 3.0 5.0 0.00 0.00 0.00 60 1021.4
20240413201106 69 207 1.0 3.0 0.00 0.00 0.00 60 1021.3
20240413200606 70 207 1.0 2.0 0.00 0.00 0.00 60 1021.3
20240413200106 70 207 1.0 5.0 0.00 0.00 0.00 60 1021.3
20240413194606 70 207 2.0 5.0 0.00 0.00 0.00 59 1021.2
20240413193605 70 207 0.0 1.0 0.00 0.00 0.00 59 1021.1
20240413193106 70 207 1.0 5.0 0.00 0.00 0.00 59 1021.0
20240413191106 71 207 0.0 1.0 0.00 0.00 0.00 58 1020.8
20240413184605 71 207 1.0 5.0 0.00 0.00 0.00 58 1020.3
20240413184106 71 207 1.0 3.0 0.00 0.00 0.00 58 1020.3
20240413183105 71 207 0.0 3.0 0.00 0.00 0.00 57 1020.3
20240413181605 72 207 0.0 9.0 0.00 0.00 0.00 57 1020.3
20240413181106 72 207 4.0 8.0 0.00 0.00 0.00 57 1020.2
20240413180107 73 207 2.0 7.0 0.00 0.00 0.00 56 1020.2
20240413173606 74 207 3.0 6.0 0.00 0.00 0.00 54 1020.2
20240413170606 76 207 0.0 3.0 0.00 0.00 0.00 52 1019.9
20240413170106 76 207 1.0 7.0 0.00 0.00 0.00 52 1019.9
20240413161105 79 207 6.0 10.0 0.00 0.00 0.00 51 1019.7
20240413160606 79 207 5.0 9.0 0.00 0.00 0.00 51 1019.7
20240413160107 79 207 6.0 10.0 0.00 0.00 0.00 51 1019.7
20240413154107 80 207 5.0 10.0 0.00 0.00 0.00 49 1019.8
20240413153106 81 207 7.0 12.0 0.00 0.00 0.00 49 1019.6
20240413151605 80 207 6.0 10.0 0.00 0.00 0.00 49 1019.6
20240413150605 81 208 9.0 12.0 0.00 0.00 0.00 50 1019.5
20240413144606 81 207 7.0 12.0 0.00 0.00 0.00 52 1019.5
20240413143106 81 209 8.0 13.0 0.00 0.00 0.00 53 1019.6
20240413141606 82 209 7.0 12.0 0.00 0.00 0.00 51 1019.6
20240413140606 82 219 7.0 12.0 0.00 0.00 0.00 47 1019.6
20240413134606 82 218 7.0 13.0 0.00 0.00 0.00 48 1019.8
20240413133105 82 222 6.0 12.0 0.00 0.00 0.00 48 1020.1
20240413130606 82 219 6.0 10.0 0.00 0.00 0.00 50 1020.6
20240413120606 81 231 7.0 9.0 0.00 0.00 0.00 51 1021.4
20240413120107 81 228 8.0 12.0 0.00 0.00 0.00 50 1021.4
20240413114605 81 226 9.0 10.0 0.00 0.00 0.00 49 1021.4
20240413114106 81 226 8.0 12.0 0.00 0.00 0.00 50 1021.4
20240413111605 82 226 6.0 10.0 0.00 0.00 0.00 49 1021.8
20240413111106 81 227 7.0 9.0 0.00 0.00 0.00 49 1021.8
20240413110106 81 227 6.0 9.0 0.00 0.00 0.00 49 1022.0
20240413100106 78 229 6.0 9.0 0.00 0.00 0.00 54 1022.7
20240413094106 76 229 5.0 8.0 0.00 0.00 0.00 55 1023.2
20240413093606 76 229 6.0 9.0 0.00 0.00 0.00 56 1023.2
20240413091105 76 229 6.0 9.0 0.00 0.00 0.00 56 1023.2
20240413084606 74 229 5.0 7.0 0.00 0.00 0.00 58 1023.6
20240413084105 74 229 6.0 8.0 0.00 0.00 0.00 58 1023.6
20240413083605 74 229 4.0 7.0 0.00 0.00 0.00 60 1023.6
20240413080106 71 229 5.0 7.0 0.00 0.00 0.00 65 1024.0
20240413071606 70 229 5.0 6.0 0.00 0.00 0.00 67 1023.9
20240413071105 69 229 3.0 6.0 0.00 0.00 0.00 68 1023.9
20240413070606 68 229 1.0 5.0 0.00 0.00 0.00 69 1023.9
20240413070106 68 229 1.0 6.0 0.00 0.00 0.00 69 1023.9
20240413063605 65 229 3.0 5.0 0.00 0.00 0.00 70 1023.8
20240413063106 65 229 3.0 6.0 0.00 0.00 0.00 70 1023.8
20240413060106 64 229 3.0 5.0 0.00 0.00 0.00 74 1023.7
20240413054606 63 229 0.0 2.0 0.00 0.00 0.00 75 1023.7
20240413050106 61 229 0.0 0.0 0.00 0.00 0.00 78 1023.7
20240413043605 60 229 0.0 0.0 0.00 0.00 0.00 76 1023.7
20240413043106 60 229 0.0 1.0 0.00 0.00 0.00 76 1023.6
20240413040606 61 229 0.0 0.0 0.00 0.00 0.00 76 1023.6
20240413034605 61 229 0.0 0.0 0.00 0.00 0.00 74 1023.2
20240413034106 61 229 0.0 0.0 0.00 0.00 0.00 73 1023.2
20240413033606 61 229 0.0 0.0 0.00 0.00 0.00 73 1023.2
20240413024605 63 229 0.0 0.0 0.00 0.00 0.00 72 1023.2
20240413024106 63 229 0.0 1.0 0.00 0.00 0.00 72 1023.2
20240413023105 63 229 1.0 2.0 0.00 0.00 0.00 71 1023.1
20240413020605 64 229 0.0 0.0 0.00 0.00 0.00 69 1022.9
20240413020106 64 229 0.0 0.0 0.00 0.00 0.00 68 1022.9
20240413013605 64 229 0.0 0.0 0.00 0.00 0.00 65 1023.0
20240413013106 64 229 0.0 0.0 0.00 0.00 0.00 64 1023.0
20240413011605 64 229 0.0 0.0 0.00 0.00 0.00 62 1023.0
20240413004605 64 229 0.0 2.0 0.00 0.00 0.00 62 1022.9
20240413003106 64 229 1.0 5.0 0.00 0.00 0.00 64 1022.9
20240413000605 64 229 2.0 3.0 0.00 0.00 0.00 65 1022.9
20240413000107 64 229 1.0 5.0 0.00 0.00 0.00 64 1022.9
20240412234605 64 229 0.0 0.0 0.00 0.00 0.00 63 1022.9
20240412233106 65 229 0.0 1.0 0.00 0.00 0.00 63 1022.9
20240412231606 66 229 0.0 0.0 0.00 0.00 0.00 62 1022.8
20240412231106 66 229 0.0 0.0 0.00 0.00 0.00 61 1022.8
20240412230605 66 229 0.0 0.0 0.00 0.00 0.00 62 1022.8
20240412230106 66 229 0.0 1.0 0.00 0.00 0.00 61 1022.8
20240412224105 66 229 0.0 0.0 0.00 0.00 0.00 61 1022.8
20240412223105 66 229 0.0 3.0 0.00 0.00 0.00 60 1022.8